Terminal Aerodrome Forecast
Issued by NWS Charleston, WV

Home | Current Version | Previous Version | Text Only | Print | Product List | Glossary On
Versions: 1 2 3 4 5 6 7 8 9 10 11 12 13 14 15 16 17 18 19 20 21
000
FTUS41 KRLX 271740
TAFPKB
TAF
KPKB 271740Z 2718/2818 22007KT P6SM VCSH BKN024 BKN040
     FM272000 00000KT P6SM VCTS BKN045CB
     FM280100 00000KT P6SM BKN060
     FM280700 VRB03KT P6SM SCT022
     FM280800 VRB03KT P6SM BKN012
     FM281300 16005KT P6SM SHRA VCTS BKN018CB
     FM281600 18007KT 4SM SHRA VCTS BKN023CB=

USA.gov is the U.S. government's official web portal to all federal, state and local government web resources and services.